首页
METAR-TAF:

METAR-TAF

机场 :

帕爾馬, 西班牙

马略卡岛帕尔马机场

纬度: 39-33N, 经度: 002-44E, 海拔: 4米

当前天气观测

该预报发布于40分钟前的23:30 UTC
风速1节,风向东转东北
温度 9°C
湿度 93%
气压 1027 hPa
能见度10公里或以上
少量云层高于3000英尺
散云层高于4500英尺

METAR: LEPA 172330Z 07001KT 9999 FEW030 SCT045 09/08 Q1027 NOSIG

时间: 01:10 (00:10 UTC)

预报

该预报发布于1小时和10分钟前的23:00 UTC
预报有效从18日的 00点(UTC)到 18日的 24点(UTC)
风速3节,风向多变
能见度10公里或以上
多云层高于3000英尺
短暂存在
从 18日的 00点(UTC)到 18日的 06点(UTC)
风速7节,风向东北
几率 30% :
短暂存在
从 18日的 00点(UTC)到 18日的 10点(UTC)
多云层高于2000英尺
短暂存在
从 18日的 11点(UTC)到 18日的 18点(UTC)
风速8节,风向西南

TAF: LEPA 172300Z 1800/1824 VRB03KT 9999 BKN030 TX15/1812Z TN08/1806Z TEMPO 1800/1806 05007KT PROB30 TEMPO 1800/1810 RA BKN020 TEMPO 1811/1818 22008KT

超过4000个机场的气象观测和天气预报(METAR&TAF报告)。

可查询的气象台以黄色和红色小点在地图上表示。

将鼠标移到小点上方,可查看气象台名称。

然后点击查看天气观测和预报。

如需切换地图:点击带黑十字的绿色按钮放大地图;点击带横线的绿色按钮缩小地图;或者点击绿色箭头查看邻近地区的地图。


METAR-TAF: